Time;durP1;ratioP1;P1;durP2;ratioP2;P2;SDS_P1;SDS_P2;PMS_P1;PMS_P2;Temp;Humidity;BMP_temperature;BMP_pressure;BME280_temperature;BME280_humidity;BME280_pressure;Samples;Min_cycle;Max_cycle;Signal;HPM_P1;HPM_P2
2022/09/05 00:02:12;;;;;;;;;;;;;;;;;;4923429;29;19915;-75
2022/09/05 00:04:59;;;;;;;;;;;;;;;;;;4914380;29;19923;-75
2022/09/05 00:07:45;;;;;;;;;;;;;;;;;;4913532;29;19922;-75
2022/09/05 00:10:32;;;;;;;;;;;;;;;;;;4913334;29;19926;-75
2022/09/05 00:13:18;;;;;;;;;;;;;;;;;;4912416;29;19922;-75
2022/09/05 00:16:05;;;;;;;;;;;;;;;;;;4912078;29;19911;-75
2022/09/05 00:18:52;;;;;;;;;;;;;;;;;;4930879;29;19927;-75
2022/09/05 00:21:38;;;;;;;;;;;;;;;;;;4924131;28;19911;-75
2022/09/05 00:24:25;;;;;;;;;;;;;;;;;;4926784;29;19922;-76
2022/09/05 00:27:12;;;;;;;;;;;;;;;;;;4923618;29;20318;-75
2022/09/05 00:29:58;;;;;;;;;;;;;;;;;;4924799;29;19919;-76
2022/09/05 00:32:45;;;;;;;;;;;;;;;;;;4923646;29;19922;-76
2022/09/05 00:35:32;;;;;;;;;;;;;;;;;;4921684;29;19918;-76
2022/09/05 00:38:18;;;;;;;;;;;;;;;;;;4928699;29;20396;-75
2022/09/05 00:41:05;;;;;;;;;;;;;;;;;;4929733;28;19921;-76
2022/09/05 00:43:51;;;;;;;;;;;;;;;;;;4915431;29;19929;-75
2022/09/05 00:46:37;;;;;;;;;;;;;;;;;;4914370;29;19926;-75
2022/09/05 00:49:24;;;;;;;;;;;;;;;;;;4926155;29;20307;-75
2022/09/05 00:52:10;;;;;;;;;;;;;;;;;;4930909;29;19911;-75
2022/09/05 00:54:57;;;;;;;;;;;;;;;;;;4927129;29;19917;-75
2022/09/05 00:57:43;;;;;;;;;;;;;;;;;;4915433;29;19938;-75
2022/09/05 01:00:30;;;;;;;;;;;;;;;;;;4913584;29;20389;-75
2022/09/05 01:03:16;;;;;;;;;;;;;;;;;;4931516;29;20118;-75
2022/09/05 01:06:03;;;;;;;;;;;;;;;;;;4929916;29;19923;-75
2022/09/05 01:08:49;;;;;;;;;;;;;;;;;;4924133;29;19914;-75
2022/09/05 01:11:36;;;;;;;;;;;;;;;;;;4916599;29;19915;-75
2022/09/05 01:14:22;;;;;;;;;;;;;;;;;;4919773;29;19915;-75
2022/09/05 01:17:09;;;;;;;;;;;;;;;;;;4925742;29;20374;-75
2022/09/05 01:19:55;;;;;;;;;;;;;;;;;;4934700;29;19910;-74
2022/09/05 01:22:42;;;;;;;;;;;;;;;;;;4934130;28;20286;-75
2022/09/05 01:25:28;;;;;;;;;;;;;;;;;;4942083;29;19923;-75
2022/09/05 01:28:15;;;;;;;;;;;;;;;;;;4924438;29;20259;-75
2022/09/05 01:31:01;;;;;;;;;;;;;;;;;;4937343;29;19990;-75
2022/09/05 01:33:47;;;;;;;;;;;;;;;;;;4928528;29;20388;-75
2022/09/05 01:36:34;;;;;;;;;;;;;;;;;;4930333;29;19914;-74
2022/09/05 01:39:20;;;;;;;;;;;;;;;;;;4928879;29;19921;-74
2022/09/05 01:42:07;;;;;;;;;;;;;;;;;;4926897;29;19917;-75
2022/09/05 01:44:54;;;;;;;;;;;;;;;;;;4935077;29;19942;-75
2022/09/05 01:47:40;;;;;;;;;;;;;;;;;;4927929;29;19915;-75
2022/09/05 01:50:27;;;;;;;;;;;;;;;;;;4930360;29;19921;-75
2022/09/05 01:53:13;;;;;;;;;;;;;;;;;;4926014;29;19923;-75
2022/09/05 01:55:59;;;;;;;;;;;;;;;;;;4917268;28;19911;-75
2022/09/05 01:58:46;;;;;;;;;;;;;;;;;;4921383;29;19918;-75
2022/09/05 02:01:32;;;;;;;;;;;;;;;;;;4930422;29;19914;-75
2022/09/05 02:04:19;;;;;;;;;;;;;;;;;;4917934;29;19915;-75
2022/09/05 02:07:06;;;;;;;;;;;;;;;;;;4920923;29;19946;-75
2022/09/05 02:09:53;;;;;;;;;;;;;;;;;;4923748;29;19919;-75
2022/09/05 02:12:39;;;;;;;;;;;;;;;;;;4932463;29;19911;-75
2022/09/05 02:15:26;;;;;;;;;;;;;;;;;;4927864;29;20374;-74
2022/09/05 02:18:12;;;;;;;;;;;;;;;;;;4932103;29;19926;-76
2022/09/05 02:20:59;;;;;;;;;;;;;;;;;;4927808;29;20323;-75
2022/09/05 02:23:45;;;;;;;;;;;;;;;;;;4932986;29;19933;-76
2022/09/05 02:26:33;;;;;;;;;;;;;;;;;;4929652;29;19926;-76
2022/09/05 02:29:19;;;;;;;;;;;;;;;;;;4915042;29;19917;-76
2022/09/05 02:32:06;;;;;;;;;;;;;;;;;;4918743;29;19945;-76
2022/09/05 02:34:52;;;;;;;;;;;;;;;;;;4926291;29;19922;-76
2022/09/05 02:37:39;;;;;;;;;;;;;;;;;;4928420;29;19937;-75
2022/09/05 02:40:25;;;;;;;;;;;;;;;;;;4931654;29;19939;-76
2022/09/05 02:43:12;;;;;;;;;;;;;;;;;;4934383;28;19915;-76
2022/09/05 02:45:58;;;;;;;;;;;;;;;;;;4928789;29;19930;-75
2022/09/05 02:48:45;;;;;;;;;;;;;;;;;;4923824;29;19919;-76
2022/09/05 02:51:31;;;;;;;;;;;;;;;;;;4915240;29;20294;-76
2022/09/05 02:54:18;;;;;;;;;;;;;;;;;;4933059;29;19922;-76
2022/09/05 02:57:04;;;;;;;;;;;;;;;;;;4919193;29;20294;-75
2022/09/05 02:59:51;;;;;;;;;;;;;;;;;;4914938;29;19921;-75
2022/09/05 03:02:37;;;;;;;;;;;;;;;;;;4928810;29;20239;-76
2022/09/05 03:05:24;;;;;;;;;;;;;;;;;;4924766;29;19918;-75
2022/09/05 03:08:10;;;;;;;;;;;;;;;;;;4920116;29;20293;-75
2022/09/05 03:10:57;;;;;;;;;;;;;;;;;;4925610;29;19927;-75
2022/09/05 03:13:44;;;;;;;;;;;;;;;;;;4926617;29;19926;-75
2022/09/05 03:16:30;;;;;;;;;;;;;;;;;;4928164;29;19922;-75
2022/09/05 03:19:17;;;;;;;;;;;;;;;;;;4922231;28;20389;-75
2022/09/05 03:22:03;;;;;;;;;;;;;;;;;;4920819;29;19917;-75
2022/09/05 03:24:51;;;;;;;;;;;;;;;;;;4918733;29;20378;-75
2022/09/05 03:27:38;;;;;;;;;;;;;;;;;;4925893;28;20306;-75
2022/09/05 03:30:25;;;;;;;;;;;;;;;;;;4924356;29;19915;-75
2022/09/05 03:33:12;;;;;;;;;;;;;;;;;;4940127;29;19922;-75
2022/09/05 03:35:58;;;;;;;;;;;;;;;;;;4922757;29;19911;-75
2022/09/05 03:38:45;;;;;;;;;;;;;;;;;;4915729;29;19915;-74
2022/09/05 03:41:31;;;;;;;;;;;;;;;;;;4926228;29;19915;-75
2022/09/05 03:44:17;;;;;;;;;;;;;;;;;;4924081;29;19930;-75
2022/09/05 03:47:04;;;;;;;;;;;;;;;;;;4918304;29;19918;-75
2022/09/05 03:49:50;;;;;;;;;;;;;;;;;;4932115;29;19984;-74
2022/09/05 03:52:37;;;;;;;;;;;;;;;;;;4925561;29;19923;-74
2022/09/05 03:55:23;;;;;;;;;;;;;;;;;;4926544;29;19918;-74
2022/09/05 03:58:10;;;;;;;;;;;;;;;;;;4915996;29;19922;-75
2022/09/05 04:00:56;;;;;;;;;;;;;;;;;;4924277;29;19935;-74
2022/09/05 04:03:43;;;;;;;;;;;;;;;;;;4930600;29;19922;-74
2022/09/05 04:06:29;;;;;;;;;;;;;;;;;;4930415;29;19923;-73
2022/09/05 04:09:16;;;;;;;;;;;;;;;;;;4922506;29;19934;-74
2022/09/05 04:12:02;;;;;;;;;;;;;;;;;;4923983;29;19919;-74
2022/09/05 04:14:49;;;;;;;;;;;;;;;;;;4924399;29;19922;-74
2022/09/05 04:17:35;;;;;;;;;;;;;;;;;;4914347;28;20363;-75
2022/09/05 04:20:22;;;;;;;;;;;;;;;;;;4915700;29;20291;-74
2022/09/05 04:23:09;;;;;;;;;;;;;;;;;;4919400;29;19921;-75
2022/09/05 04:25:55;;;;;;;;;;;;;;;;;;4923778;29;19923;-75
2022/09/05 04:28:42;;;;;;;;;;;;;;;;;;4934096;28;19918;-75
2022/09/05 04:31:28;;;;;;;;;;;;;;;;;;4927098;29;19915;-76
2022/09/05 04:34:15;;;;;;;;;;;;;;;;;;4921247;29;19919;-76
2022/09/05 04:37:02;;;;;;;;;;;;;;;;;;4932024;29;20373;-76
2022/09/05 04:39:48;;;;;;;;;;;;;;;;;;4916755;29;19921;-76
2022/09/05 04:42:35;;;;;;;;;;;;;;;;;;4929114;29;19915;-76
2022/09/05 04:45:21;;;;;;;;;;;;;;;;;;4927026;29;19922;-76
2022/09/05 04:48:08;;;;;;;;;;;;;;;;;;4932161;29;19915;-76
2022/09/05 04:50:55;;;;;;;;;;;;;;;;;;4922740;28;19917;-76
2022/09/05 04:53:41;;;;;;;;;;;;;;;;;;4927171;29;19911;-76
2022/09/05 04:56:28;;;;;;;;;;;;;;;;;;4929230;29;20015;-76
2022/09/05 04:59:15;;;;;;;;;;;;;;;;;;4936680;29;19911;-80
2022/09/05 05:02:01;;;;;;;;;;;;;;;;;;4929980;29;19915;-75
2022/09/05 05:04:48;;;;;;;;;;;;;;;;;;4924462;29;19923;-75
2022/09/05 05:07:34;;;;;;;;;;;;;;;;;;4935718;29;19918;-75
2022/09/05 05:10:21;;;;;;;;;;;;;;;;;;4924121;29;19922;-75
2022/09/05 05:13:07;;;;;;;;;;;;;;;;;;4924162;29;20540;-75
2022/09/05 05:15:54;;;;;;;;;;;;;;;;;;4922981;29;19918;-75
2022/09/05 05:18:40;;;;;;;;;;;;;;;;;;4898781;29;20032;-75
2022/09/05 05:21:27;;;;;;;;;;;;;;;;;;4899726;29;19912;-75
2022/09/05 05:24:14;;;;;;;;;;;;;;;;;;4907743;29;19918;-75
2022/09/05 05:27:00;;;;;;;;;;;;;;;;;;4907271;29;19915;-75
2022/09/05 05:29:47;;;;;;;;;;;;;;;;;;4906448;29;19911;-75
2022/09/05 05:32:33;;;;;;;;;;;;;;;;;;4899123;29;19925;-75
2022/09/05 05:35:20;;;;;;;;;;;;;;;;;;4920227;29;19911;-75
2022/09/05 05:38:06;;;;;;;;;;;;;;;;;;4899350;29;19985;-74
2022/09/05 05:40:53;;;;;;;;;;;;;;;;;;4907146;29;19919;-75
2022/09/05 05:43:39;;;;;;;;;;;;;;;;;;4904257;29;19918;-76
2022/09/05 05:46:26;;;;;;;;;;;;;;;;;;4905488;29;19931;-74
2022/09/05 05:49:13;;;;;;;;;;;;;;;;;;4900787;29;19911;-75
2022/09/05 05:51:59;;;;;;;;;;;;;;;;;;4906326;29;19926;-75
2022/09/05 05:54:46;;;;;;;;;;;;;;;;;;4899944;29;19912;-76
2022/09/05 05:57:34;;;;;;;;;;;;;;;;;;4899644;29;19923;-74
2022/09/05 06:00:21;;;;;;;;;;;;;;;;;;4905082;29;19919;-74
2022/09/05 06:03:07;;;;;;;;;;;;;;;;;;4913133;29;19915;-74
2022/09/05 06:05:54;;;;;;;;;;;;;;;;;;4895336;29;19942;-74
2022/09/05 06:08:40;;;;;;;;;;;;;;;;;;4898301;29;19915;-74
2022/09/05 06:11:27;;;;;;;;;;;;;;;;;;4896874;29;19911;-74
2022/09/05 06:14:13;;;;;;;;;;;;;;;;;;4909201;29;19915;-75
2022/09/05 06:17:00;;;;;;;;;;;;;;;;;;4909344;29;20291;-74
2022/09/05 06:19:46;;;;;;;;;;;;;;;;;;4916700;29;19922;-74
2022/09/05 06:22:34;;;;;;;;;;;;;;;;;;4928336;29;19919;-74
2022/09/05 06:25:20;;;;;;;;;;;;;;;;;;4928999;29;19919;-75
2022/09/05 06:28:07;;;;;;;;;;;;;;;;;;4932150;29;19910;-75
2022/09/05 06:30:53;;;;;;;;;;;;;;;;;;4930385;29;19922;-74
2022/09/05 06:33:41;;;;;;;;;;;;;;;;;;4918820;29;20415;-75
2022/09/05 06:36:29;;;;;;;;;;;;;;;;;;4932448;28;20271;-75
2022/09/05 06:39:16;;;;;;;;;;;;;;;;;;4916574;29;19915;-74
2022/09/05 06:42:02;;;;;;;;;;;;;;;;;;4925580;29;19916;-74
2022/09/05 06:44:49;;;;;;;;;;;;;;;;;;4922504;29;19919;-75
2022/09/05 06:47:35;;;;;;;;;;;;;;;;;;4914476;29;20018;-75
2022/09/05 06:50:22;;;;;;;;;;;;;;;;;;4924268;29;19915;-75
2022/09/05 06:53:09;;;;;;;;;;;;;;;;;;4921153;29;19918;-75
2022/09/05 06:55:56;;;;;;;;;;;;;;;;;;4923154;29;19922;-74
2022/09/05 06:58:42;;;;;;;;;;;;;;;;;;4918691;29;19925;-75
2022/09/05 07:01:29;;;;;;;;;;;;;;;;;;4924127;28;19930;-74
2022/09/05 07:04:15;;;;;;;;;;;;;;;;;;4918686;29;19921;-75
2022/09/05 07:07:02;;;;;;;;;;;;;;;;;;4917231;28;19933;-75
2022/09/05 07:09:48;;;;;;;;;;;;;;;;;;4917742;29;19931;-76
2022/09/05 07:12:35;;;;;;;;;;;;;;;;;;4911648;29;19919;-76
2022/09/05 07:15:21;;;;;;;;;;;;;;;;;;4928103;28;19922;-76
2022/09/05 07:18:08;;;;;;;;;;;;;;;;;;4927216;29;20306;-76
2022/09/05 07:20:54;;;;;;;;;;;;;;;;;;4929018;29;19918;-73
2022/09/05 07:23:42;;;;;;;;;;;;;;;;;;4920944;29;20327;-75
2022/09/05 07:26:28;;;;;;;;;;;;;;;;;;4921274;29;20024;-75
2022/09/05 07:29:15;;;;;;;;;;;;;;;;;;4909424;29;19915;-76
2022/09/05 07:32:01;;;;;;;;;;;;;;;;;;4925643;29;19915;-74
2022/09/05 07:34:48;;;;;;;;;;;;;;;;;;4926916;29;19915;-74
2022/09/05 07:37:34;;;;;;;;;;;;;;;;;;4920567;29;20332;-74
2022/09/05 07:40:21;;;;;;;;;;;;;;;;;;4924908;29;20370;-74
2022/09/05 07:43:07;;;;;;;;;;;;;;;;;;4932236;28;19915;-74
2022/09/05 07:45:54;;;;;;;;;;;;;;;;;;4926968;29;19923;-75
2022/09/05 07:48:40;;;;;;;;;;;;;;;;;;4927491;29;20311;-75
2022/09/05 07:51:27;;;;;;;;;;;;;;;;;;4931803;29;19911;-75
2022/09/05 07:54:17;;;;;;;;;;;;;;;;;;4923527;29;20282;-75
2022/09/05 07:57:03;;;;;;;;;;;;;;;;;;4939179;29;19915;-76
2022/09/05 07:59:50;;;;;;;;;;;;;;;;;;4929548;29;20290;-75
2022/09/05 08:02:39;;;;;;;;;;;;;;;;;;4927496;29;19922;-75
2022/09/05 08:05:25;;;;;;;;;;;;;;;;;;4918217;29;19919;-75
2022/09/05 08:08:12;;;;;;;;;;;;;;;;;;4916207;29;19917;-75
2022/09/05 08:10:58;;;;;;;;;;;;;;;;;;4943477;29;19925;-75
2022/09/05 08:13:45;;;;;;;;;;;;;;;;;;4931497;29;20020;-74
2022/09/05 08:16:33;;;;;;;;;;;;;;;;;;4922881;29;19922;-75
2022/09/05 08:19:20;;;;;;;;;;;;;;;;;;4936047;29;19918;-75
2022/09/05 08:22:06;;;;;;;;;;;;;;;;;;4936222;29;20484;-75
2022/09/05 08:24:53;;;;;;;;;;;;;;;;;;4936487;29;19929;-75
2022/09/05 08:27:39;;;;;;;;;;;;;;;;;;4922640;29;19922;-75
2022/09/05 08:30:26;;;;;;;;;;;;;;;;;;4926813;29;19911;-74
2022/09/05 08:33:12;;;;;;;;;;;;;;;;;;4916887;29;20571;-75
2022/09/05 08:35:59;;;;;;;;;;;;;;;;;;4935255;28;19911;-75
2022/09/05 08:38:45;;;;;;;;;;;;;;;;;;4930633;29;19918;-75
2022/09/05 08:41:32;;;;;;;;;;;;;;;;;;4925683;29;19922;-74
2022/09/05 08:44:18;;;;;;;;;;;;;;;;;;4934608;29;19989;-75
2022/09/05 08:47:05;;;;;;;;;;;;;;;;;;4930486;29;19930;-75
2022/09/05 08:49:51;;;;;;;;;;;;;;;;;;4927003;29;19919;-75
2022/09/05 08:52:38;;;;;;;;;;;;;;;;;;4925612;29;20301;-75
2022/09/05 08:55:24;;;;;;;;;;;;;;;;;;4932534;29;19919;-75
2022/09/05 08:58:10;;;;;;;;;;;;;;;;;;4927873;29;20287;-75
2022/09/05 09:00:57;;;;;;;;;;;;;;;;;;4922436;29;19911;-75
2022/09/05 09:03:43;;;;;;;;;;;;;;;;;;4930022;29;19911;-75
2022/09/05 09:06:30;;;;;;;;;;;;;;;;;;4931426;29;19918;-76
2022/09/05 09:09:17;;;;;;;;;;;;;;;;;;4927460;29;19921;-75
2022/09/05 09:12:03;;;;;;;;;;;;;;;;;;4923579;29;19925;-76
2022/09/05 09:14:50;;;;;;;;;;;;;;;;;;4923855;29;19911;-75
2022/09/05 09:17:36;;;;;;;;;;;;;;;;;;4916506;29;19954;-75
2022/09/05 09:20:23;;;;;;;;;;;;;;;;;;4897034;29;19915;-75
2022/09/05 09:23:09;;;;;;;;;;;;;;;;;;4913356;29;19922;-75
2022/09/05 09:25:56;;;;;;;;;;;;;;;;;;4902463;29;19931;-75
2022/09/05 09:28:42;;;;;;;;;;;;;;;;;;4910339;29;19919;-76
2022/09/05 09:31:29;;;;;;;;;;;;;;;;;;4915770;29;19918;-75
2022/09/05 09:34:15;;;;;;;;;;;;;;;;;;4905101;29;19927;-76
2022/09/05 09:37:02;;;;;;;;;;;;;;;;;;4902294;29;19919;-76
2022/09/05 09:39:48;;;;;;;;;;;;;;;;;;4898181;29;19923;-77
2022/09/05 09:42:34;;;;;;;;;;;;;;;;;;4903032;29;19915;-76
2022/09/05 09:45:21;;;;;;;;;;;;;;;;;;4903334;29;19923;-75
2022/09/05 09:48:07;;;;;;;;;;;;;;;;;;4906924;29;19919;-75
2022/09/05 09:50:54;;;;;;;;;;;;;;;;;;4907691;29;19915;-75
2022/09/05 09:53:41;;;;;;;;;;;;;;;;;;4897349;29;20379;-74
2022/09/05 09:56:28;;;;;;;;;;;;;;;;;;4902713;29;19941;-75
2022/09/05 09:59:14;;;;;;;;;;;;;;;;;;4913737;29;19922;-75
2022/09/05 10:02:01;;;;;;;;;;;;;;;;;;4910349;29;19922;-74
2022/09/05 10:04:47;;;;;;;;;;;;;;;;;;4903263;29;20002;-74
2022/09/05 10:07:34;;;;;;;;;;;;;;;;;;4909228;29;19919;-75
2022/09/05 10:10:20;;;;;;;;;;;;;;;;;;4910332;29;19911;-75
2022/09/05 10:13:07;;;;;;;;;;;;;;;;;;4903879;29;19915;-75
2022/09/05 10:15:54;;;;;;;;;;;;;;;;;;4913066;29;20282;-76
2022/09/05 10:18:40;;;;;;;;;;;;;;;;;;4910274;29;20286;-75
2022/09/05 10:21:27;;;;;;;;;;;;;;;;;;4917346;29;20430;-75
2022/09/05 10:24:13;;;;;;;;;;;;;;;;;;4918308;29;19954;-75
2022/09/05 10:26:59;;;;;;;;;;;;;;;;;;4918890;29;19927;-75
2022/09/05 10:29:46;;;;;;;;;;;;;;;;;;4923856;29;20284;-75
2022/09/05 10:32:32;;;;;;;;;;;;;;;;;;4914095;29;19918;-75
2022/09/05 10:35:19;;;;;;;;;;;;;;;;;;4928474;29;19922;-75
2022/09/05 10:38:05;;;;;;;;;;;;;;;;;;4931560;29;19918;-76
2022/09/05 10:40:52;;;;;;;;;;;;;;;;;;4924230;29;20286;-75
2022/09/05 10:43:38;;;;;;;;;;;;;;;;;;4921583;29;19914;-75
2022/09/05 10:46:25;;;;;;;;;;;;;;;;;;4930123;29;19942;-76
2022/09/05 10:49:11;;;;;;;;;;;;;;;;;;4927739;29;19911;-75
2022/09/05 10:51:59;;;;;;;;;;;;;;;;;;4930714;29;19921;-75
2022/09/05 10:54:45;;;;;;;;;;;;;;;;;;4919554;29;19929;-76
2022/09/05 10:57:32;;;;;;;;;;;;;;;;;;4932507;29;20362;-75
2022/09/05 11:00:19;;;;;;;;;;;;;;;;;;4923768;29;19911;-75
2022/09/05 11:03:06;;;;;;;;;;;;;;;;;;4929015;29;20020;-75
2022/09/05 11:05:53;;;;;;;;;;;;;;;;;;4927556;29;19927;-75
2022/09/05 11:08:40;;;;;;;;;;;;;;;;;;4926848;29;19915;-75
2022/09/05 11:11:27;;;;;;;;;;;;;;;;;;4917604;29;19914;-76
2022/09/05 11:14:14;;;;;;;;;;;;;;;;;;4927485;29;20298;-76
2022/09/05 11:17:01;;;;;;;;;;;;;;;;;;4925310;29;20385;-76
2022/09/05 11:19:47;;;;;;;;;;;;;;;;;;4926123;29;19934;-76
2022/09/05 11:22:34;;;;;;;;;;;;;;;;;;4927915;29;20302;-75
2022/09/05 11:25:20;;;;;;;;;;;;;;;;;;4922373;29;19919;-75
2022/09/05 11:28:06;;;;;;;;;;;;;;;;;;4918183;29;20294;-75
2022/09/05 11:30:53;;;;;;;;;;;;;;;;;;4932396;28;19923;-75
2022/09/05 11:33:39;;;;;;;;;;;;;;;;;;4923553;29;20370;-75
2022/09/05 11:36:26;;;;;;;;;;;;;;;;;;4915163;29;20284;-75
2022/09/05 11:39:13;;;;;;;;;;;;;;;;;;4927426;29;20504;-75
2022/09/05 11:41:59;;;;;;;;;;;;;;;;;;4921793;29;19915;-75
2022/09/05 11:44:46;;;;;;;;;;;;;;;;;;4927041;29;19921;-75
2022/09/05 11:47:33;;;;;;;;;;;;;;;;;;4924322;29;19953;-75
2022/09/05 11:50:19;;;;;;;;;;;;;;;;;;4925016;29;19915;-76
2022/09/05 11:53:05;;;;;;;;;;;;;;;;;;4920343;29;19910;-75
2022/09/05 11:55:52;;;;;;;;;;;;;;;;;;4927333;29;19915;-75
2022/09/05 11:58:39;;;;;;;;;;;;;;;;;;4918228;29;19919;-75
2022/09/05 12:01:26;;;;;;;;;;;;;;;;;;4925914;29;19923;-75
2022/09/05 12:04:15;;;;;;;;;;;;;;;;;;4919498;28;19918;-75
2022/09/05 12:07:04;;;;;;;;;;;;;;;;;;4921320;29;20401;-75
2022/09/05 12:09:50;;;;;;;;;;;;;;;;;;4918051;29;19922;-75
2022/09/05 12:12:37;;;;;;;;;;;;;;;;;;4922571;29;19922;-75
2022/09/05 12:15:23;;;;;;;;;;;;;;;;;;4925386;29;19922;-75
2022/09/05 12:18:10;;;;;;;;;;;;;;;;;;4922537;29;19927;-75
2022/09/05 12:20:56;;;;;;;;;;;;;;;;;;4918163;29;19919;-74
2022/09/05 12:23:43;;;;;;;;;;;;;;;;;;4915453;29;19919;-74
2022/09/05 12:26:29;;;;;;;;;;;;;;;;;;4919873;29;19919;-74
2022/09/05 12:29:17;;;;;;;;;;;;;;;;;;4928841;29;19977;-74
2022/09/05 12:32:04;;;;;;;;;;;;;;;;;;4915615;29;20369;-74
2022/09/05 12:34:51;;;;;;;;;;;;;;;;;;4920460;29;19911;-75
2022/09/05 12:37:37;;;;;;;;;;;;;;;;;;4924293;29;19925;-75
2022/09/05 12:40:24;;;;;;;;;;;;;;;;;;4925536;29;20275;-74
2022/09/05 12:43:11;;;;;;;;;;;;;;;;;;4925522;28;19921;-76
2022/09/05 12:45:57;;;;;;;;;;;;;;;;;;4930482;29;19923;-76
2022/09/05 12:48:44;;;;;;;;;;;;;;;;;;4928308;29;19919;-74
2022/09/05 12:51:32;;;;;;;;;;;;;;;;;;4929299;29;19911;-74
2022/09/05 12:54:19;;;;;;;;;;;;;;;;;;4929024;29;19911;-74
2022/09/05 12:57:05;;;;;;;;;;;;;;;;;;4915196;29;19918;-74
2022/09/05 12:59:52;;;;;;;;;;;;;;;;;;4924971;29;19916;-75
2022/09/05 13:02:38;;;;;;;;;;;;;;;;;;4930282;29;19961;-75
2022/09/05 13:05:25;;;;;;;;;;;;;;;;;;4930737;29;19929;-74
2022/09/05 13:08:19;;;;;;;;;;;;;;;;;;4924271;29;19934;-74
2022/09/05 13:11:07;;;;;;;;;;;;;;;;;;4933472;29;19918;-74
2022/09/05 13:13:54;;;;;;;;;;;;;;;;;;4934648;29;19914;-74
2022/09/05 13:16:40;;;;;;;;;;;;;;;;;;4924607;29;19911;-74
2022/09/05 13:19:27;;;;;;;;;;;;;;;;;;4916612;29;19923;-74
2022/09/05 13:22:13;;;;;;;;;;;;;;;;;;4919742;29;19922;-74
2022/09/05 13:25:00;;;;;;;;;;;;;;;;;;4925866;29;19911;-74
2022/09/05 13:27:55;;;;;;;;;;;;;;;;;;4934928;29;19914;-73
2022/09/05 13:30:41;;;;;;;;;;;;;;;;;;4932667;29;19911;-74
2022/09/05 13:33:28;;;;;;;;;;;;;;;;;;4933910;29;19919;-74
2022/09/05 13:36:15;;;;;;;;;;;;;;;;;;4924614;29;19911;-74
2022/09/05 13:39:01;;;;;;;;;;;;;;;;;;4932659;29;19926;-74
2022/09/05 13:41:48;;;;;;;;;;;;;;;;;;4930241;29;19919;-74
2022/09/05 13:44:35;;;;;;;;;;;;;;;;;;4915157;29;19917;-74
2022/09/05 13:47:21;;;;;;;;;;;;;;;;;;4924417;29;19926;-74
2022/09/05 13:50:07;;;;;;;;;;;;;;;;;;4923511;29;19919;-74
2022/09/05 13:52:54;;;;;;;;;;;;;;;;;;4924498;29;19960;-74
2022/09/05 13:55:41;;;;;;;;;;;;;;;;;;4926590;29;19915;-73
2022/09/05 13:58:27;;;;;;;;;;;;;;;;;;4918350;29;19915;-74
2022/09/05 14:01:16;;;;;;;;;;;;;;;;;;4927379;29;19930;-74
2022/09/05 14:04:04;;;;;;;;;;;;;;;;;;4925635;29;19919;-74
2022/09/05 14:06:50;;;;;;;;;;;;;;;;;;4925464;29;19927;-74
2022/09/05 14:09:37;;;;;;;;;;;;;;;;;;4924837;29;20383;-74
2022/09/05 14:12:24;;;;;;;;;;;;;;;;;;4914857;29;19915;-74
2022/09/05 14:15:10;;;;;;;;;;;;;;;;;;4924028;29;19926;-74
2022/09/05 14:17:57;;;;;;;;;;;;;;;;;;4925039;29;19933;-74
2022/09/05 14:23:52;;;;;;;;;;;;;;;;;;4926769;29;19914;-74
2022/09/05 14:26:38;;;;;;;;;;;;;;;;;;4928087;29;19918;-74
2022/09/05 14:29:25;;;;;;;;;;;;;;;;;;4915300;29;20347;-74
2022/09/05 14:32:14;;;;;;;;;;;;;;;;;;4921885;29;19918;-74
2022/09/05 14:35:01;;;;;;;;;;;;;;;;;;4921742;28;19929;-74
2022/09/05 14:37:47;;;;;;;;;;;;;;;;;;4918692;29;19945;-72
2022/09/05 14:40:34;;;;;;;;;;;;;;;;;;4926278;29;19918;-73
2022/09/05 14:43:20;;;;;;;;;;;;;;;;;;4926602;29;19922;-74
2022/09/05 14:46:07;;;;;;;;;;;;;;;;;;4920860;29;20389;-73
2022/09/05 14:48:53;;;;;;;;;;;;;;;;;;4928529;29;19915;-74
2022/09/05 14:51:40;;;;;;;;;;;;;;;;;;4922631;29;20298;-74
2022/09/05 14:54:26;;;;;;;;;;;;;;;;;;4927616;29;20421;-74
2022/09/05 14:57:13;;;;;;;;;;;;;;;;;;4924618;29;19921;-73
2022/09/05 15:00:00;;;;;;;;;;;;;;;;;;4927998;29;20440;-74
2022/09/05 15:02:47;;;;;;;;;;;;;;;;;;4929033;29;19926;-73
2022/09/05 15:05:34;;;;;;;;;;;;;;;;;;4919405;29;19937;-73
2022/09/05 15:08:20;;;;;;;;;;;;;;;;;;4924721;29;19933;-73
2022/09/05 15:11:10;;;;;;;;;;;;;;;;;;4927637;29;19918;-73
2022/09/05 15:13:56;;;;;;;;;;;;;;;;;;4925805;29;20252;-75
2022/09/05 15:16:44;;;;;;;;;;;;;;;;;;4917652;29;19922;-75
2022/09/05 15:19:30;;;;;;;;;;;;;;;;;;4922725;29;19923;-73
2022/09/05 15:22:17;;;;;;;;;;;;;;;;;;4938351;29;19915;-73
2022/09/05 15:25:03;;;;;;;;;;;;;;;;;;4925860;29;19915;-73
2022/09/05 15:27:50;;;;;;;;;;;;;;;;;;4926586;29;19930;-74
2022/09/05 15:30:36;;;;;;;;;;;;;;;;;;4927525;29;19930;-74
2022/09/05 15:33:23;;;;;;;;;;;;;;;;;;4929182;29;20389;-73
2022/09/05 15:36:12;;;;;;;;;;;;;;;;;;4920201;29;19914;-73
2022/09/05 15:38:58;;;;;;;;;;;;;;;;;;4929788;29;19930;-74
2022/09/05 15:41:45;;;;;;;;;;;;;;;;;;4921106;29;19919;-74
2022/09/05 15:44:32;;;;;;;;;;;;;;;;;;4929495;28;19911;-72
2022/09/05 15:47:21;;;;;;;;;;;;;;;;;;4920265;29;19920;-73
2022/09/05 15:50:07;;;;;;;;;;;;;;;;;;4918084;29;19911;-74
2022/09/05 15:52:54;;;;;;;;;;;;;;;;;;4930915;29;19931;-73
2022/09/05 15:55:40;;;;;;;;;;;;;;;;;;4924157;29;19950;-73
2022/09/05 15:58:27;;;;;;;;;;;;;;;;;;4928863;29;20375;-76
2022/09/05 16:01:14;;;;;;;;;;;;;;;;;;4933017;28;19922;-77
2022/09/05 16:04:00;;;;;;;;;;;;;;;;;;4944229;29;19921;-76
2022/09/05 16:06:48;;;;;;;;;;;;;;;;;;4929681;29;20315;-77
2022/09/05 16:09:35;;;;;;;;;;;;;;;;;;4926658;29;19918;-76
2022/09/05 16:12:22;;;;;;;;;;;;;;;;;;4929310;29;19915;-76
2022/09/05 16:15:08;;;;;;;;;;;;;;;;;;4926135;29;19922;-77
2022/09/05 16:17:54;;;;;;;;;;;;;;;;;;4924211;29;19923;-76
2022/09/05 16:20:41;;;;;;;;;;;;;;;;;;4925080;29;19925;-76
2022/09/05 16:23:27;;;;;;;;;;;;;;;;;;4920582;29;19919;-76
2022/09/05 16:26:15;;;;;;;;;;;;;;;;;;4928119;29;19923;-76
2022/09/05 16:29:01;;;;;;;;;;;;;;;;;;4920786;29;19926;-75
2022/09/05 16:31:48;;;;;;;;;;;;;;;;;;4920858;29;19919;-76
2022/09/05 16:34:34;;;;;;;;;;;;;;;;;;4923533;29;19911;-75
2022/09/05 16:37:21;;;;;;;;;;;;;;;;;;4920748;29;19939;-76
2022/09/05 16:40:07;;;;;;;;;;;;;;;;;;4922770;29;20205;-74
2022/09/05 16:42:54;;;;;;;;;;;;;;;;;;4929130;29;19910;-74
2022/09/05 16:45:40;;;;;;;;;;;;;;;;;;4924758;29;19922;-76
2022/09/05 16:48:27;;;;;;;;;;;;;;;;;;4923130;28;19916;-75
2022/09/05 16:51:13;;;;;;;;;;;;;;;;;;4937831;29;19919;-73
2022/09/05 16:53:59;;;;;;;;;;;;;;;;;;4933130;29;20305;-73
2022/09/05 16:56:46;;;;;;;;;;;;;;;;;;4929356;29;19922;-74
2022/09/05 16:59:32;;;;;;;;;;;;;;;;;;4934207;29;20677;-74
2022/09/05 17:02:19;;;;;;;;;;;;;;;;;;4932122;29;19915;-74
2022/09/05 17:05:05;;;;;;;;;;;;;;;;;;4925804;29;20379;-75
2022/09/05 17:07:52;;;;;;;;;;;;;;;;;;4923100;29;19925;-75
2022/09/05 17:10:38;;;;;;;;;;;;;;;;;;4932736;28;19919;-75
2022/09/05 17:13:25;;;;;;;;;;;;;;;;;;4929018;28;19911;-75
2022/09/05 17:16:12;;;;;;;;;;;;;;;;;;4935723;28;19915;-75
2022/09/05 17:18:58;;;;;;;;;;;;;;;;;;4928955;29;19927;-75
2022/09/05 17:21:45;;;;;;;;;;;;;;;;;;4925421;29;20298;-76
2022/09/05 17:24:31;;;;;;;;;;;;;;;;;;4925669;29;19911;-76
2022/09/05 17:27:18;;;;;;;;;;;;;;;;;;4922395;29;20100;-76
2022/09/05 17:30:05;;;;;;;;;;;;;;;;;;4926843;29;19915;-76
2022/09/05 17:32:52;;;;;;;;;;;;;;;;;;4928976;28;19915;-76
2022/09/05 17:35:41;;;;;;;;;;;;;;;;;;4936182;29;19911;-75
2022/09/05 17:38:27;;;;;;;;;;;;;;;;;;4931403;29;19911;-76
2022/09/05 17:41:14;;;;;;;;;;;;;;;;;;4931730;29;19915;-76
2022/09/05 17:44:02;;;;;;;;;;;;;;;;;;4928866;28;19930;-76
2022/09/05 17:46:49;;;;;;;;;;;;;;;;;;4936515;29;20020;-75
2022/09/05 17:49:41;;;;;;;;;;;;;;;;;;4928918;29;19911;-75
2022/09/05 17:52:28;;;;;;;;;;;;;;;;;;4931265;29;19915;-76
2022/09/05 17:55:14;;;;;;;;;;;;;;;;;;4933234;29;19911;-78
2022/09/05 17:58:01;;;;;;;;;;;;;;;;;;4933647;29;20415;-75
2022/09/05 18:00:48;;;;;;;;;;;;;;;;;;4930004;29;19915;-76
2022/09/05 18:03:34;;;;;;;;;;;;;;;;;;4929729;29;19928;-76
2022/09/05 18:06:21;;;;;;;;;;;;;;;;;;4931456;28;20018;-75
2022/09/05 18:09:08;;;;;;;;;;;;;;;;;;4926505;28;19919;-76
2022/09/05 18:11:54;;;;;;;;;;;;;;;;;;4918679;29;19915;-74
2022/09/05 18:14:41;;;;;;;;;;;;;;;;;;4925793;29;20390;-75
2022/09/05 18:17:28;;;;;;;;;;;;;;;;;;4924219;29;20608;-74
2022/09/05 18:20:15;;;;;;;;;;;;;;;;;;4920469;29;19915;-76
2022/09/05 18:23:01;;;;;;;;;;;;;;;;;;4922012;28;19926;-75
2022/09/05 18:25:48;;;;;;;;;;;;;;;;;;4921794;29;19915;-76
2022/09/05 18:28:34;;;;;;;;;;;;;;;;;;4920954;28;19994;-75
2022/09/05 18:31:21;;;;;;;;;;;;;;;;;;4922707;29;20380;-76
2022/09/05 18:34:07;;;;;;;;;;;;;;;;;;4923495;28;19922;-75
2022/09/05 18:36:54;;;;;;;;;;;;;;;;;;4919970;29;20418;-76
2022/09/05 18:39:40;;;;;;;;;;;;;;;;;;4924882;29;20362;-74
2022/09/05 18:42:27;;;;;;;;;;;;;;;;;;4930229;29;19919;-74
2022/09/05 18:45:13;;;;;;;;;;;;;;;;;;4929251;29;20368;-74
2022/09/05 18:48:00;;;;;;;;;;;;;;;;;;4928899;29;19929;-74
2022/09/05 18:50:46;;;;;;;;;;;;;;;;;;4929335;29;19922;-75
2022/09/05 18:53:33;;;;;;;;;;;;;;;;;;4918820;29;19923;-74
2022/09/05 18:56:20;;;;;;;;;;;;;;;;;;4925873;28;19915;-75
2022/09/05 18:59:06;;;;;;;;;;;;;;;;;;4919631;29;19938;-75
2022/09/05 19:01:53;;;;;;;;;;;;;;;;;;4917391;29;19923;-75